Time;durP1;ratioP1;P1;durP2;ratioP2;P2;SDS_P1;SDS_P2;PMS_P1;PMS_P2;Temp;Humidity;BMP_temperature;BMP_pressure;BME280_temperature;BME280_humidity;BME280_pressure;Samples;Min_cycle;Max_cycle;Signal;HPM_P1;HPM_P2
2022/06/30 00:01:34;;;;;;;;;0.25;0.25;;;;;18.59;100.00;100867.22;5016414;28;44737;-84
2022/06/30 00:04:00;;;;;;;;;0.00;0.00;;;;;18.28;100.00;100866.69;5020850;28;45373;-85
2022/06/30 00:06:26;;;;;;;;;0.00;0.00;;;;;18.15;100.00;100867.03;5020541;28;44820;-84
2022/06/30 00:08:52;;;;;;;;;0.00;0.00;;;;;18.10;100.00;100867.47;5017052;28;45271;-85
2022/06/30 00:11:18;;;;;;;;;0.00;0.00;;;;;18.12;100.00;100878.06;5017215;28;44827;-84
2022/06/30 00:13:47;;;;;;;;;0.00;0.00;;;;;18.06;100.00;100879.50;5017627;28;44866;-84
2022/06/30 00:16:13;;;;;;;;;0.20;0.20;;;;;18.03;100.00;100879.78;5017352;28;44823;-84
2022/06/30 00:18:38;;;;;;;;;1.00;1.00;;;;;17.99;100.00;100891.88;5017516;28;45334;-86
2022/06/30 00:21:04;;;;;;;;;0.00;0.00;;;;;17.96;100.00;100890.31;5018507;28;45183;-86
2022/06/30 00:23:30;;;;;;;;;2.00;1.00;;;;;17.89;100.00;100886.53;5001218;28;44803;-85
2022/06/30 00:25:56;;;;;;;;;0.25;0.25;;;;;17.76;100.00;100894.06;5018543;28;44787;-85
2022/06/30 00:28:21;;;;;;;;;1.00;1.00;;;;;17.61;100.00;100882.03;5020332;28;45217;-86
2022/06/30 00:30:48;;;;;;;;;2.00;0.50;;;;;17.57;100.00;100880.63;5026819;28;44748;-85
2022/06/30 00:33:13;;;;;;;;;1.40;0.40;;;;;17.47;100.00;100892.22;5011698;28;44685;-85
2022/06/30 00:35:39;;;;;;;;;0.00;0.00;;;;;17.39;100.00;100904.66;5020749;28;44825;-85
2022/06/30 00:38:05;;;;;;;;;1.00;1.00;;;;;17.39;100.00;100905.50;5021078;28;46065;-86
2022/06/30 00:40:37;;;;;;;;;1.00;0.00;;;;;17.39;100.00;100905.50;4999297;28;45441;-86
2022/06/30 00:43:03;;;;;;;;;0.00;0.00;;;;;17.37;100.00;100902.13;4999584;28;45297;-86
2022/06/30 00:45:29;;;;;;;;;1.00;0.00;;;;;17.32;100.00;100898.19;5018783;28;45365;-86
2022/06/30 00:47:57;;;;;;;;;0.00;0.00;;;;;17.31;100.00;100909.91;5018749;28;45393;-87
2022/06/30 00:50:23;;;;;;;;;0.00;0.00;;;;;17.29;100.00;100907.38;5000740;28;44811;-86
2022/06/30 00:52:52;;;;;;;;;2.00;1.25;;;;;17.26;100.00;100901.41;5018145;28;45397;-86
2022/06/30 00:55:19;;;;;;;;;0.00;0.00;;;;;17.07;100.00;100908.50;5017477;28;44831;-85
2022/06/30 00:57:45;;;;;;;;;0.00;0.00;;;;;17.02;100.00;100907.22;5015892;28;47231;-87
2022/06/30 01:00:12;;;;;;;;;1.00;1.00;;;;;17.03;100.00;100887.44;4998632;28;45510;-84
2022/06/30 01:02:38;;;;;;;;;0.80;0.80;;;;;16.99;100.00;100891.41;5015227;28;45483;-84
2022/06/30 01:05:04;;;;;;;;;1.00;1.00;;;;;17.02;100.00;100881.25;5015661;28;45588;-84
2022/06/30 01:07:30;;;;;;;;;0.00;0.00;;;;;17.01;100.00;100879.53;5018205;28;45543;-85
2022/06/30 01:12:45;;;;;;;;;1.00;1.00;;;;;16.95;100.00;100880.94;5019652;28;44859;-84
2022/06/30 01:15:16;;;;;;;;;4.20;0.00;;;;;16.91;100.00;100889.41;5005667;28;45403;-84
2022/06/30 01:17:43;;;;;;;;;1.40;1.00;;;;;16.90;100.00;100893.94;5020453;28;45114;-84
2022/06/30 01:20:10;;;;;;;;;1.80;1.80;;;;;16.91;100.00;100906.34;5017082;28;44764;-84
2022/06/30 01:22:35;;;;;;;;;1.20;1.20;;;;;16.90;100.00;100901.97;5019100;28;44774;-84
2022/06/30 01:25:02;;;;;;;;;1.00;1.00;;;;;16.80;100.00;100895.75;4999646;28;44978;-83
2022/06/30 01:27:27;;;;;;;;;1.40;1.40;;;;;16.79;100.00;100888.69;5019928;28;45447;-83
2022/06/30 01:29:53;;;;;;;;;2.00;2.00;;;;;16.71;100.00;100880.47;5020754;28;44906;-84
2022/06/30 01:32:19;;;;;;;;;1.00;1.00;;;;;16.70;100.00;100889.50;5021920;28;45480;-84
2022/06/30 01:34:44;;;;;;;;;1.75;1.75;;;;;16.70;100.00;100893.03;5019310;28;45400;-84
2022/06/30 01:37:10;;;;;;;;;1.00;1.00;;;;;16.63;100.00;100893.69;5017352;28;45165;-84
2022/06/30 01:39:36;;;;;;;;;0.00;0.00;;;;;16.62;100.00;100886.66;4999230;28;44768;-85
2022/06/30 01:42:02;;;;;;;;;1.25;1.25;;;;;16.63;100.00;100883.84;5018576;28;45076;-84
2022/06/30 01:44:28;;;;;;;;;2.20;0.60;;;;;16.65;100.00;100889.06;4995836;28;44880;-85
2022/06/30 01:46:54;;;;;;;;;1.00;1.00;;;;;16.64;100.00;100893.59;4995160;28;46739;-84
2022/06/30 01:49:19;;;;;;;;;1.00;1.00;;;;;16.63;100.00;100891.91;4996232;28;45502;-84
2022/06/30 01:51:45;;;;;;;;;2.50;2.00;;;;;16.57;100.00;100886.22;4996467;28;44781;-84
2022/06/30 01:54:11;;;;;;;;;5.00;1.75;;;;;16.49;100.00;100894.97;4999035;28;44866;-84
2022/06/30 01:56:37;;;;;;;;;3.00;2.00;;;;;16.41;100.00;100890.28;5000222;28;46517;-84
2022/06/30 01:59:04;;;;;;;;;1.40;1.40;;;;;16.41;100.00;100894.78;4997262;28;45243;-84
2022/06/30 02:01:30;;;;;;;;;1.00;1.00;;;;;16.41;100.00;100887.59;4998531;28;45290;-85
2022/06/30 02:03:55;;;;;;;;;1.25;1.25;;;;;16.36;100.00;100889.84;4999953;28;45195;-84
2022/06/30 02:06:21;;;;;;;;;2.00;2.00;;;;;16.40;100.00;100910.03;4999515;28;45207;-83
2022/06/30 02:08:46;;;;;;;;;4.00;1.00;;;;;16.37;100.00;100899.56;5000121;28;45425;-83
2022/06/30 02:11:12;;;;;;;;;3.00;1.00;;;;;16.32;100.00;100907.19;4999601;28;45593;-83
2022/06/30 02:13:37;;;;;;;;;2.00;2.00;;;;;16.38;100.00;100925.41;5001194;28;44934;-83
2022/06/30 02:16:03;;;;;;;;;3.00;3.00;;;;;16.36;100.00;100910.44;4999384;28;45160;-84
2022/06/30 02:18:28;;;;;;;;;2.00;2.00;;;;;16.19;100.00;100904.72;4997479;28;45206;-83
2022/06/30 02:20:54;;;;;;;;;0.25;0.25;;;;;16.17;100.00;100908.53;4996074;28;45446;-83
2022/06/30 02:23:19;;;;;;;;;3.75;1.25;;;;;16.23;100.00;100894.56;4997319;28;45395;-86
2022/06/30 02:25:45;;;;;;;;;3.50;2.00;;;;;16.21;100.00;100901.06;5003372;28;45435;-84
2022/06/30 02:28:11;;;;;;;;;2.00;2.00;;;;;16.23;100.00;100893.72;5004838;28;44763;-83
2022/06/30 02:30:37;;;;;;;;;2.50;2.50;;;;;16.29;100.00;100906.59;5003115;28;44834;-84
2022/06/30 02:33:03;;;;;;;;;5.00;3.25;;;;;16.31;100.00;100908.16;4999894;28;45367;-84
2022/06/30 02:35:29;;;;;;;;;1.80;1.00;;;;;16.27;100.00;100882.59;5001819;28;45344;-84
2022/06/30 02:37:55;;;;;;;;;3.60;2.00;;;;;16.25;100.00;100889.09;5002932;28;45289;-84
2022/06/30 02:40:23;;;;;;;;;3.50;3.50;;;;;16.28;100.00;100897.69;5001392;28;45191;-83
2022/06/30 02:42:49;;;;;;;;;4.25;3.00;;;;;16.25;100.00;100916.75;5001204;28;45263;-84
2022/06/30 02:45:14;;;;;;;;;1.50;1.50;;;;;16.28;100.00;100915.63;5021625;28;45602;-84
2022/06/30 02:47:42;;;;;;;;;2.00;2.00;;;;;16.28;100.00;100913.78;5022294;28;45322;-83
2022/06/30 02:50:11;;;;;;;;;1.40;1.40;;;;;16.37;100.00;100926.38;5021227;28;45527;-84
2022/06/30 02:52:38;;;;;;;;;4.50;2.00;;;;;16.45;100.00;100918.53;5023543;28;45232;-83
2022/06/30 02:55:05;;;;;;;;;2.40;2.40;;;;;16.44;100.00;100907.94;5003528;28;45469;-84
2022/06/30 02:57:30;;;;;;;;;3.20;2.20;;;;;16.53;100.00;100904.41;5019659;28;45272;-84
2022/06/30 02:59:56;;;;;;;;;2.00;2.00;;;;;16.49;100.00;100892.28;5019080;28;45450;-84
2022/06/30 03:02:22;;;;;;;;;1.00;1.00;;;;;16.49;100.00;100902.13;5019043;28;44866;-85
2022/06/30 03:04:47;;;;;;;;;2.00;2.00;;;;;16.42;100.00;100902.69;5018623;28;45353;-84
2022/06/30 03:07:13;;;;;;;;;3.75;3.00;;;;;16.42;100.00;100923.28;5018450;28;45510;-84
2022/06/30 03:09:39;;;;;;;;;1.25;1.25;;;;;16.39;100.00;100929.78;5017374;28;44724;-84
2022/06/30 03:12:05;;;;;;;;;1.50;1.50;;;;;16.42;100.00;100925.97;5001134;28;44922;-84
2022/06/30 03:14:30;;;;;;;;;2.25;0.75;;;;;16.43;100.00;100903.53;5019038;28;45400;-84
2022/06/30 03:16:56;;;;;;;;;1.25;1.25;;;;;16.53;100.00;100903.56;5020791;28;44720;-85
2022/06/30 03:19:22;;;;;;;;;3.00;1.25;;;;;16.50;100.00;100912.75;5023329;28;45215;-83
2022/06/30 03:21:48;;;;;;;;;4.40;2.40;;;;;16.48;100.00;100898.59;4987237;28;45632;-84
2022/06/30 03:24:13;;;;;;;;;2.25;1.25;;;;;16.46;100.00;100892.53;5016834;28;46315;-84
2022/06/30 03:26:39;;;;;;;;;2.00;2.00;;;;;16.43;100.00;100880.25;5018636;28;45613;-84
2022/06/30 03:29:05;;;;;;;;;1.00;1.00;;;;;16.48;100.00;100882.50;5018114;28;44902;-84
2022/06/30 03:31:30;;;;;;;;;1.40;1.40;;;;;16.47;100.00;100885.34;5000599;28;44759;-84
2022/06/30 03:33:56;;;;;;;;;2.50;2.50;;;;;16.48;100.00;100897.75;5019023;28;45060;-86
2022/06/30 03:36:21;;;;;;;;;1.75;1.00;;;;;16.52;100.00;100908.09;5004032;28;45409;-86
2022/06/30 03:38:47;;;;;;;;;1.00;1.00;;;;;16.54;100.00;100922.22;5024743;28;45341;-86
2022/06/30 03:41:13;;;;;;;;;2.00;2.00;;;;;16.55;100.00;100931.97;5026835;28;44960;-87
2022/06/30 03:43:38;;;;;;;;;4.75;1.75;;;;;16.57;100.00;100937.19;5029088;28;45169;-86
2022/06/30 03:46:04;;;;;;;;;2.25;2.00;;;;;16.57;100.00;100938.03;5025453;28;44795;-85
2022/06/30 03:48:29;;;;;;;;;1.00;1.00;;;;;16.66;100.00;100926.47;5022281;28;45215;-86
2022/06/30 03:50:55;;;;;;;;;0.75;0.75;;;;;16.65;100.00;100908.69;5022347;28;44863;-86
2022/06/30 03:53:20;;;;;;;;;2.00;2.00;;;;;16.64;100.00;100906.16;5022166;28;45406;-86
2022/06/30 03:55:46;;;;;;;;;2.50;2.50;;;;;16.56;100.00;100917.56;5019035;28;44960;-86
2022/06/30 03:58:11;;;;;;;;;2.25;2.25;;;;;16.57;100.00;100923.75;5019642;28;45333;-86
2022/06/30 04:00:37;;;;;;;;;3.00;1.00;;;;;16.59;100.00;100924.50;5019481;28;45270;-87
2022/06/30 04:03:04;;;;;;;;;2.00;2.00;;;;;16.62;100.00;100926.88;5025514;28;45070;-87
2022/06/30 04:05:29;;;;;;;;;2.40;2.40;;;;;16.57;100.00;100929.13;5008791;28;44827;-86
2022/06/30 04:07:55;;;;;;;;;2.00;2.00;;;;;16.57;100.00;100919.25;5019032;28;44843;-86
2022/06/30 04:10:21;;;;;;;;;1.75;1.75;;;;;16.53;100.00;100923.19;5019097;28;45537;-86
2022/06/30 04:12:46;;;;;;;;;4.75;3.25;;;;;16.33;100.00;100924.94;5019217;28;45066;-87
2022/06/30 04:15:11;;;;;;;;;2.25;2.25;;;;;16.14;100.00;100925.72;5018099;28;45424;-84
2022/06/30 04:17:37;;;;;;;;;6.75;5.00;;;;;16.08;100.00;100936.97;5018217;28;44830;-83
2022/06/30 04:20:04;;;;;;;;;2.00;2.00;;;;;15.91;100.00;100938.44;5020031;28;44790;-82
2022/06/30 04:22:30;;;;;;;;;4.20;3.80;;;;;15.79;100.00;100941.31;5019449;28;45077;-83
2022/06/30 04:24:56;;;;;;;;;6.50;3.25;;;;;15.74;100.00;100962.31;5017969;28;44852;-86
2022/06/30 04:27:21;;;;;;;;;2.25;2.25;;;;;15.67;100.00;100970.88;5019041;28;44831;-85
2022/06/30 04:29:47;;;;;;;;;3.50;3.00;;;;;15.59;100.00;100967.94;5018196;28;44720;-85
2022/06/30 04:34:57;;;;;;;;;5.20;3.00;;;;;15.48;100.00;100980.56;5019096;28;45357;-85
2022/06/30 04:37:22;;;;;;;;;3.50;2.00;;;;;15.43;100.00;100975.56;5004601;28;45396;-86
2022/06/30 04:39:48;;;;;;;;;1.50;1.50;;;;;15.50;100.00;100973.22;5019162;28;45455;-86
2022/06/30 04:42:13;;;;;;;;;3.00;1.75;;;;;15.54;100.00;100974.66;5019178;28;45195;-87
2022/06/30 04:44:39;;;;;;;;;2.00;2.00;;;;;15.59;100.00;100986.69;5021839;28;45518;-87
2022/06/30 04:47:05;;;;;;;;;5.00;4.00;;;;;15.61;100.00;100986.56;5027137;28;45530;-87
2022/06/30 04:49:30;;;;;;;;;3.50;3.50;;;;;15.60;100.00;100977.66;5046315;28;44928;-85
2022/06/30 04:51:56;;;;;;;;;4.25;3.00;;;;;15.70;100.00;100960.84;5023826;28;45317;-85
2022/06/30 04:54:21;;;;;;;;;5.75;4.00;;;;;15.72;100.00;100958.91;5020596;28;45339;-84
2022/06/30 04:56:46;;;;;;;;;3.00;3.00;;;;;15.72;100.00;100961.59;5017338;28;44790;-85
2022/06/30 04:59:12;;;;;;;;;5.75;4.25;;;;;15.69;100.00;100951.97;5016827;28;45248;-85
2022/06/30 05:01:37;;;;;;;;;2.50;2.50;;;;;15.75;100.00;100955.97;5017058;28;45268;-85
2022/06/30 05:04:03;;;;;;;;;4.00;3.00;;;;;15.77;100.00;100941.47;5016150;28;45273;-85
2022/06/30 05:06:28;;;;;;;;;6.00;4.00;;;;;15.80;100.00;100927.78;5017428;28;44825;-84
2022/06/30 05:08:54;;;;;;;;;6.50;2.25;;;;;15.79;100.00;100928.78;5016018;28;45463;-87
2022/06/30 05:11:19;;;;;;;;;4.00;1.25;;;;;15.81;100.00;100920.59;5016733;28;46802;-87
2022/06/30 05:13:45;;;;;;;;;3.75;3.75;;;;;15.80;100.00;100922.44;5017803;28;45341;-87
2022/06/30 05:16:10;;;;;;;;;4.00;3.00;;;;;15.84;100.00;100921.19;5018157;28;45355;-87
2022/06/30 05:18:36;;;;;;;;;3.00;3.00;;;;;15.86;100.00;100927.28;5019453;28;45292;-88
2022/06/30 05:21:01;;;;;;;;;5.50;2.00;;;;;15.85;100.00;100930.06;5017073;28;45489;-87
2022/06/30 05:23:27;;;;;;;;;2.00;2.00;;;;;15.87;100.00;100930.81;5020876;28;44745;-87
2022/06/30 05:28:36;;;;;;;;;4.00;4.00;;;;;15.87;100.00;100941.53;5022553;28;45347;-87
2022/06/30 05:31:02;;;;;;;;;6.00;4.00;;;;;15.89;100.00;100956.47;5023672;28;45418;-86
2022/06/30 05:33:28;;;;;;;;;3.75;3.00;;;;;15.95;100.00;100971.16;5028094;28;45284;-87
2022/06/30 05:35:57;;;;;;;;;5.00;3.25;;;;;15.93;100.00;100959.75;5024140;28;45328;-85
2022/06/30 05:38:23;;;;;;;;;3.20;3.20;;;;;15.93;100.00;100973.16;5018493;28;44885;-85
2022/06/30 05:40:49;;;;;;;;;3.50;3.50;;;;;15.91;100.00;100969.75;5019407;28;45003;-84
2022/06/30 05:43:16;;;;;;;;;3.75;3.00;;;;;15.97;100.00;100979.09;5019204;28;45485;-84
2022/06/30 05:45:50;;;;;;;;;4.00;3.60;;;;;15.98;100.00;100983.47;5003462;28;45512;-85
2022/06/30 05:48:34;;;;;;;;;5.75;5.50;;;;;15.98;100.00;100987.00;5020950;28;44761;-85
2022/06/30 05:51:00;;;;;;;;;5.60;5.20;;;;;15.94;100.00;100980.19;5022389;28;45292;-85
2022/06/30 05:53:25;;;;;;;;;4.00;3.50;;;;;16.02;100.00;100991.13;5009266;28;44705;-87
2022/06/30 05:55:51;;;;;;;;;10.00;5.00;;;;;16.06;100.00;100999.75;4989201;28;44698;-87
2022/06/30 05:58:17;;;;;;;;;6.75;4.00;;;;;16.01;100.00;100994.78;4989154;28;44899;-86
2022/06/30 06:00:42;;;;;;;;;6.20;4.20;;;;;16.05;100.00;100996.22;5006829;28;45178;-86
2022/06/30 06:03:08;;;;;;;;;3.75;3.75;;;;;16.04;100.00;100974.91;5017072;28;44824;-86
2022/06/30 06:05:33;;;;;;;;;4.00;4.00;;;;;16.09;100.00;100980.72;5002530;28;45381;-86
2022/06/30 06:08:12;;;;;;;;;3.25;3.25;;;;;16.16;100.00;100979.22;5021377;28;45434;-87
2022/06/30 06:10:38;;;;;;;;;4.40;4.40;;;;;16.19;100.00;100971.72;5020538;28;45358;-87
2022/06/30 06:13:05;;;;;;;;;4.40;4.00;;;;;16.22;100.00;100978.66;5021022;28;44822;-86
2022/06/30 06:15:31;;;;;;;;;5.00;4.00;;;;;16.21;100.00;100976.13;5013023;28;45249;-85
2022/06/30 06:17:56;;;;;;;;;3.25;3.25;;;;;16.19;100.00;100974.41;5006269;28;44728;-86
2022/06/30 06:20:21;;;;;;;;;3.25;3.25;;;;;16.14;100.00;100968.59;5004643;28;45382;-86
2022/06/30 06:22:47;;;;;;;;;6.50;5.00;;;;;16.07;100.00;100970.13;5016305;28;45398;-86
2022/06/30 06:25:14;;;;;;;;;3.25;3.00;;;;;16.03;100.00;100971.38;5020727;28;44760;-86
2022/06/30 06:27:39;;;;;;;;;6.80;4.40;;;;;16.04;100.00;100967.69;5023322;28;44993;-86
2022/06/30 06:30:07;;;;;;;;;5.50;5.50;;;;;16.09;100.00;100970.84;5005901;28;46604;-85
2022/06/30 06:32:33;;;;;;;;;4.20;3.40;;;;;16.14;100.00;100975.78;5007029;28;45431;-86
2022/06/30 06:34:59;;;;;;;;;2.80;2.80;;;;;16.19;100.00;100981.59;5002909;28;44699;-86
2022/06/30 06:37:25;;;;;;;;;6.25;4.50;;;;;16.23;100.00;100979.53;5020157;28;44937;-86
2022/06/30 06:39:50;;;;;;;;;4.25;4.25;;;;;16.24;100.00;100983.88;5019343;28;46132;-86
2022/06/30 06:42:19;;;;;;;;;6.00;4.25;;;;;16.27;100.00;100978.28;5019203;28;45210;-86
2022/06/30 06:44:47;;;;;;;;;5.60;5.60;;;;;16.28;100.00;100988.84;5009485;28;45448;-86
2022/06/30 06:47:13;;;;;;;;;5.80;5.80;;;;;16.28;100.00;100991.53;5019284;28;45506;-86
2022/06/30 06:49:39;;;;;;;;;7.00;5.00;;;;;16.26;100.00;101001.56;5019721;28;45254;-85
2022/06/30 06:52:05;;;;;;;;;5.75;5.75;;;;;16.15;100.00;101007.00;5020842;28;44842;-86
2022/06/30 06:54:37;;;;;;;;;8.00;5.40;;;;;16.15;100.00;101012.38;5020899;28;44822;-85
2022/06/30 06:57:02;;;;;;;;;9.40;5.40;;;;;16.13;100.00;101017.84;5018951;28;44821;-86
2022/06/30 06:59:48;;;;;;;;;4.25;4.25;;;;;16.13;100.00;101017.84;5002177;28;45287;-86
2022/06/30 07:02:14;;;;;;;;;7.60;7.60;;;;;16.13;100.00;101020.53;4988800;28;44888;-86
2022/06/30 07:04:40;;;;;;;;;8.00;7.00;;;;;16.18;100.00;101030.84;5008155;28;45365;-85
2022/06/30 07:07:05;;;;;;;;;6.75;6.75;;;;;16.20;100.00;101034.25;5003687;28;44854;-86
2022/06/30 07:09:31;;;;;;;;;8.00;7.00;;;;;16.22;100.00;101029.59;4989061;28;45587;-86
2022/06/30 07:11:56;;;;;;;;;6.25;6.25;;;;;16.26;100.00;101027.53;5006426;28;45314;-87
2022/06/30 07:14:31;;;;;;;;;7.25;7.25;;;;;16.24;100.00;101045.56;5001044;28;44846;-87
2022/06/30 07:16:57;;;;;;;;;4.20;4.20;;;;;16.11;100.00;101029.69;4999789;28;45504;-86
2022/06/30 07:19:23;;;;;;;;;4.50;4.50;;;;;16.03;100.00;101034.84;5000127;28;45514;-86
2022/06/30 07:21:48;;;;;;;;;7.75;7.75;;;;;16.00;100.00;101035.94;4981954;28;45422;-87
2022/06/30 07:24:13;;;;;;;;;6.50;6.50;;;;;16.05;100.00;101047.16;4992904;28;44950;-86
2022/06/30 07:26:39;;;;;;;;;7.25;6.25;;;;;15.94;100.00;101045.34;5008539;28;45366;-86
2022/06/30 07:29:05;;;;;;;;;8.00;5.00;;;;;15.88;100.00;101048.56;5014672;28;45339;-85
2022/06/30 07:31:30;;;;;;;;;2.75;2.75;;;;;15.79;100.00;101035.94;5006980;28;44853;-86
2022/06/30 07:33:56;;;;;;;;;5.00;5.00;;;;;15.77;100.00;101034.38;4988824;28;45497;-86
2022/06/30 07:36:24;;;;;;;;;5.50;4.50;;;;;15.64;100.00;101024.69;4984399;28;45519;-85
2022/06/30 07:38:50;;;;;;;;;6.40;4.60;;;;;15.65;100.00;101015.66;4985064;28;46703;-85
2022/06/30 07:41:18;;;;;;;;;8.25;7.00;;;;;15.57;100.00;101002.06;4981612;28;45250;-86
2022/06/30 07:43:46;;;;;;;;;5.00;5.00;;;;;15.69;100.00;101018.94;5010842;28;44814;-85
2022/06/30 07:46:14;;;;;;;;;6.20;4.40;;;;;15.80;100.00;101023.38;5018157;28;44716;-86
2022/06/30 07:48:40;;;;;;;;;6.20;4.60;;;;;15.96;100.00;101033.69;5018739;28;45074;-87
2022/06/30 07:51:06;;;;;;;;;5.00;5.00;;;;;16.02;100.00;101025.09;5020919;28;45349;-86
2022/06/30 07:53:44;;;;;;;;;7.00;5.20;;;;;16.01;100.00;101036.81;5022033;28;45262;-85
2022/06/30 07:56:13;;;;;;;;;6.00;3.50;;;;;16.01;100.00;101037.66;5023918;28;45376;-86
2022/06/30 07:58:39;;;;;;;;;4.00;3.00;;;;;15.92;100.00;101030.41;5022582;28;46294;-87
2022/06/30 08:01:05;;;;;;;;;4.80;4.00;;;;;15.98;100.00;101024.50;5003153;28;45196;-86
2022/06/30 08:03:31;;;;;;;;;4.50;4.50;;;;;16.02;100.00;101041.19;5019257;28;44756;-87
2022/06/30 08:05:56;;;;;;;;;4.00;4.00;;;;;16.01;100.00;101010.03;5007039;28;44776;-87
2022/06/30 08:08:23;;;;;;;;;4.50;4.50;;;;;15.94;100.00;101015.03;5028905;28;45424;-86
2022/06/30 08:10:52;;;;;;;;;3.60;3.60;;;;;15.93;100.00;101013.34;5020519;28;44708;-86
2022/06/30 08:13:20;;;;;;;;;4.60;3.60;;;;;15.97;100.00;101009.41;4983986;28;45437;-87
2022/06/30 08:15:46;;;;;;;;;3.80;3.80;;;;;15.89;100.00;101009.22;5007373;28;44815;-85
2022/06/30 08:18:11;;;;;;;;;6.00;4.75;;;;;15.92;100.00;101020.53;4999221;28;46442;-86
2022/06/30 08:20:49;;;;;;;;;8.00;6.50;;;;;15.89;100.00;101027.97;5017026;28;45216;-86
2022/06/30 08:23:18;;;;;;;;;4.60;3.80;;;;;15.81;100.00;101007.22;5002687;28;45522;-87
2022/06/30 08:25:46;;;;;;;;;5.00;4.25;;;;;15.85;100.00;101013.97;5025307;28;45415;-87
2022/06/30 08:28:12;;;;;;;;;6.20;6.20;;;;;15.78;100.00;101004.78;5024629;28;45256;-86
2022/06/30 08:30:37;;;;;;;;;6.00;5.00;;;;;15.76;100.00;101006.75;5002509;28;44917;-86
2022/06/30 08:33:11;;;;;;;;;5.00;5.00;;;;;15.71;100.00;100997.38;5019553;28;44801;-86
2022/06/30 08:35:37;;;;;;;;;8.75;4.00;;;;;15.76;100.00;101001.38;5022475;28;45186;-85
2022/06/30 08:38:02;;;;;;;;;8.25;5.50;;;;;15.78;100.00;101006.59;5022137;28;45236;-85
2022/06/30 08:43:14;;;;;;;;;6.60;3.40;;;;;15.49;100.00;101022.41;5001941;28;44733;-85
2022/06/30 08:45:42;;;;;;;;;7.75;6.25;;;;;15.37;100.00;101019.75;4998283;28;44994;-85
2022/06/30 08:48:08;;;;;;;;;2.80;2.80;;;;;15.23;100.00;101013.84;5004953;28;45357;-85
2022/06/30 08:50:34;;;;;;;;;4.75;4.75;;;;;15.25;100.00;101014.56;5014284;28;45411;-86
2022/06/30 08:53:02;;;;;;;;;3.40;3.40;;;;;15.19;100.00;101012.41;4988840;28;44656;-85
2022/06/30 08:55:30;;;;;;;;;3.00;3.00;;;;;15.16;100.00;101009.00;4990535;28;44898;-85
2022/06/30 08:58:08;;;;;;;;;3.60;3.60;;;;;15.08;100.00;100998.06;5009058;28;45421;-85
2022/06/30 09:00:38;;;;;;;;;2.80;2.60;;;;;15.02;100.00;100987.00;5000054;28;45396;-84
2022/06/30 09:03:05;;;;;;;;;2.80;2.80;;;;;15.01;100.00;100988.84;5018624;28;44644;-84
2022/06/30 09:05:31;;;;;;;;;2.00;2.00;;;;;15.00;100.00;100991.66;5017070;28;45536;-84
2022/06/30 09:07:57;;;;;;;;;4.80;4.80;;;;;14.84;100.00;100974.16;4998433;28;47745;-84
2022/06/30 09:10:25;;;;;;;;;3.00;3.00;;;;;14.95;100.00;100984.00;4997353;28;45166;-84
2022/06/30 09:13:02;;;;;;;;;6.00;4.00;;;;;14.86;100.00;100977.56;5006631;28;44881;-84
2022/06/30 09:15:34;;;;;;;;;1.50;1.50;;;;;14.97;100.00;100981.19;5027625;28;45233;-84
2022/06/30 09:18:01;;;;;;;;;2.00;2.00;;;;;15.06;100.00;100975.09;5011617;28;47055;-82
2022/06/30 09:20:37;;;;;;;;;4.00;2.00;;;;;15.10;100.00;100971.19;5020901;28;44872;-84
2022/06/30 09:23:25;;;;;;;;;3.00;1.40;;;;;15.18;100.00;100976.72;5019056;28;45443;-84
2022/06/30 09:26:09;;;;;;;;;;;;;;;;;;;;;
2022/06/30 09:29:15;;;;;;;;;6.00;4.00;;;;;15.32;100.00;100997.00;5012394;28;74515;-86
2022/06/30 09:31:43;;;;;;;;;3.00;3.00;;;;;15.31;100.00;100989.97;5004896;28;45380;-84
2022/06/30 09:34:21;;;;;;;;;4.00;4.00;;;;;15.37;100.00;101003.69;5008567;28;45400;-84
2022/06/30 09:36:51;;;;;;;;;4.25;4.00;;;;;15.30;100.00;100998.97;4995741;28;44796;-85
2022/06/30 09:39:25;;;;;;;;;5.60;3.20;;;;;15.37;100.00;101008.19;5013405;28;45524;-84
2022/06/30 09:41:51;;;;;;;;;6.20;4.60;;;;;15.47;100.00;101013.63;4988521;28;45583;-84
2022/06/30 09:44:25;;;;;;;;;4.80;4.00;;;;;15.51;100.00;101018.59;4980715;28;45788;-84
2022/06/30 09:47:08;;;;;;;;;3.75;2.25;;;;;15.59;100.00;101016.16;4994114;28;45541;-86
2022/06/30 09:49:39;;;;;;;;;1.40;1.40;;;;;15.57;100.00;101009.22;4988039;28;46694;-84
2022/06/30 09:52:17;;;;;;;;;4.00;4.00;;;;;15.53;100.00;101005.09;4994604;28;44711;-85
2022/06/30 09:55:33;;;;;;;;;5.00;3.80;;;;;15.66;100.00;101012.03;4999191;28;44832;-87
2022/06/30 09:58:09;;;;;;;;;3.00;1.80;;;;;15.53;100.00;100992.56;4991104;28;44914;-88
2022/06/30 10:00:50;;;;;;;;;2.20;2.20;;;;;15.46;100.00;101015.47;4989902;28;45522;-89
2022/06/30 10:04:08;;;;;;;;;3.00;3.00;;;;;15.46;100.00;101015.47;5001000;28;44910;-88
2022/06/30 10:06:34;;;;;;;;;3.80;2.40;;;;;15.47;100.00;101001.09;5018587;28;45323;-91
2022/06/30 10:09:00;;;;;;;;;2.00;1.00;;;;;15.57;100.00;101018.13;5003475;28;44862;-88
2022/06/30 10:11:26;;;;;;;;;3.40;2.00;;;;;15.67;100.00;101018.22;4985484;28;45085;-88
2022/06/30 10:13:52;;;;;;;;;4.75;2.00;;;;;15.66;100.00;101000.44;4997749;28;45364;-88
2022/06/30 10:16:19;;;;;;;;;2.25;1.00;;;;;15.74;100.00;101015.88;4997411;28;44764;-88
2022/06/30 10:18:46;;;;;;;;;2.00;2.00;;;;;15.70;100.00;101017.09;5002359;28;44954;-87
2022/06/30 10:21:12;;;;;;;;;2.20;2.20;;;;;15.51;100.00;101026.63;5002902;28;45266;-88
2022/06/30 10:23:38;;;;;;;;;3.75;2.25;;;;;15.49;100.00;101042.00;5004437;28;44766;-88
2022/06/30 10:26:06;;;;;;;;;6.00;4.00;;;;;15.40;100.00;101045.44;4994740;28;44702;-88
2022/06/30 10:28:32;;;;;;;;;2.60;2.20;;;;;15.33;100.00;101049.59;5003750;28;45011;-88
2022/06/30 10:31:26;;;;;;;;;5.00;4.25;;;;;15.27;100.00;101066.97;4991436;28;46017;-89
2022/06/30 10:34:15;;;;;;;;;6.80;4.60;;;;;15.20;100.00;101075.66;4993259;28;45314;-89
2022/06/30 10:36:48;;;;;;;;;6.20;3.00;;;;;15.13;100.00;101073.47;4994454;28;45258;-87
2022/06/30 10:39:29;;;;;;;;;6.25;5.00;;;;;15.09;100.00;101072.03;4998893;28;44951;-89
2022/06/30 10:41:54;;;;;;;;;5.00;2.20;;;;;15.06;100.00;101079.44;4992397;28;45387;-88
2022/06/30 10:44:23;;;;;;;;;2.50;2.50;;;;;15.04;100.00;101076.06;4979650;28;44784;-88
2022/06/30 10:46:48;;;;;;;;;2.20;1.20;;;;;15.08;100.00;101078.31;4990524;28;45329;-88
2022/06/30 10:49:15;;;;;;;;;3.00;2.50;;;;;15.11;100.00;101091.47;4982729;28;45306;-87
2022/06/30 10:51:41;;;;;;;;;2.00;2.00;;;;;15.09;100.00;101087.22;4995148;28;45490;-88
2022/06/30 10:54:08;;;;;;;;;4.40;3.00;;;;;15.12;100.00;101090.50;5000626;28;44803;-88
2022/06/30 10:56:49;;;;;;;;;7.40;4.40;;;;;15.22;100.00;101101.31;4995513;28;45375;-89
2022/06/30 10:59:16;;;;;;;;;6.00;4.75;;;;;15.26;100.00;101094.72;5007425;28;45601;-88
2022/06/30 11:02:15;;;;;;;;;2.60;2.60;;;;;15.33;100.00;101101.31;5006027;28;45486;-88
2022/06/30 11:05:02;;;;;;;;;5.00;3.00;;;;;15.32;100.00;101091.56;5001471;28;44723;-89
2022/06/30 11:07:28;;;;;;;;;5.00;3.40;;;;;15.38;100.00;101085.72;5013659;28;45308;-88
2022/06/30 11:09:55;;;;;;;;;5.50;5.00;;;;;15.49;100.00;101108.09;4983778;28;44943;-88
2022/06/30 11:12:29;;;;;;;;;2.60;2.60;;;;;15.63;100.00;101095.31;4988825;28;45257;-88
2022/06/30 11:14:57;;;;;;;;;3.40;3.40;;;;;15.79;100.00;101092.19;4988103;28;45404;-88
2022/06/30 11:17:24;;;;;;;;;3.60;3.60;;;;;16.01;100.00;101099.31;4986219;28;44853;-88
2022/06/30 11:20:08;;;;;;;;;3.40;3.40;;;;;16.24;100.00;101093.81;4998007;28;45457;-89
2022/06/30 11:22:34;;;;;;;;;4.80;3.40;;;;;16.40;100.00;101102.25;4983668;28;48382;-88
2022/06/30 11:25:11;;;;;;;;;7.00;6.20;;;;;16.55;100.00;101105.47;4979701;28;45393;-87
2022/06/30 11:27:38;;;;;;;;;5.00;5.00;;;;;16.56;100.00;101107.16;4990715;28;45377;-87
2022/06/30 11:30:06;;;;;;;;;3.00;3.00;;;;;16.53;100.00;101094.84;4992583;28;44691;-88
2022/06/30 11:32:33;;;;;;;;;2.40;2.20;;;;;16.54;100.00;101093.03;4982086;28;45370;-87
2022/06/30 11:34:58;;;;;;;;;4.80;3.80;;;;;16.47;100.00;101079.28;4997225;28;45575;-87